createdAt,value
2024-03-26T00:05:33.259Z,77.00
2024-03-26T00:13:57.615Z,72.20
2024-03-26T00:22:20.197Z,59.90
2024-03-26T00:30:42.736Z,53.30
2024-03-26T00:39:06.154Z,52.10
2024-03-26T00:47:28.768Z,53.20
2024-03-26T00:55:51.450Z,52.70
2024-03-26T01:04:14.113Z,49.40
2024-03-26T01:12:36.814Z,44.00
2024-03-26T01:20:59.606Z,43.30
2024-03-26T01:29:22.361Z,38.40
2024-03-26T01:37:45.468Z,37.30
2024-03-26T01:46:08.389Z,34.00
2024-03-26T01:54:31.072Z,35.80
2024-03-26T02:02:53.855Z,37.70
2024-03-26T02:11:17.125Z,35.40
2024-03-26T02:19:39.910Z,37.40
2024-03-26T02:28:03.085Z,35.90
2024-03-26T02:36:25.777Z,30.60
2024-03-26T02:44:48.410Z,33.10
2024-03-26T02:53:11.038Z,35.70
2024-03-26T03:01:33.543Z,35.00
2024-03-26T03:09:56.107Z,33.60
2024-03-26T03:18:20.028Z,31.40
2024-03-26T03:26:42.670Z,32.70
2024-03-26T03:35:05.590Z,25.50
2024-03-26T03:43:28.223Z,24.90
2024-03-26T03:51:53.187Z,24.30
2024-03-26T04:00:16.412Z,26.60
2024-03-26T04:08:39.078Z,24.00
2024-03-26T04:17:01.671Z,21.60
2024-03-26T04:25:24.442Z,20.00
2024-03-26T04:33:47.090Z,24.30
2024-03-26T04:42:09.602Z,24.20
2024-03-26T04:50:32.221Z,21.00
2024-03-26T04:58:54.753Z,21.10
2024-03-26T05:07:17.662Z,21.70
2024-03-26T05:15:40.371Z,20.30
2024-03-26T05:24:04.348Z,21.90
2024-03-26T05:32:28.366Z,23.00
2024-03-26T05:40:52.368Z,22.60
2024-03-26T05:49:15.841Z,18.40
2024-03-26T05:57:39.175Z,18.50
2024-03-26T06:06:02.164Z,18.60
2024-03-26T06:14:24.937Z,18.50
2024-03-26T06:22:48.063Z,17.00
2024-03-26T06:31:10.622Z,14.80
2024-03-26T06:39:33.243Z,18.60
2024-03-26T06:47:55.997Z,20.40
2024-03-26T06:56:18.838Z,17.90
2024-03-26T07:04:41.529Z,17.80
2024-03-26T07:13:04.433Z,18.00
2024-03-26T07:21:28.025Z,17.20
2024-03-26T07:29:50.705Z,22.30
2024-03-26T07:38:13.385Z,21.30
2024-03-26T07:46:36.137Z,21.30
2024-03-26T07:54:58.849Z,23.40
2024-03-26T08:03:21.760Z,23.90
2024-03-26T08:11:44.451Z,31.30
2024-03-26T08:20:10.959Z,22.90
2024-03-26T08:28:33.649Z,23.30
2024-03-26T08:36:57.429Z,21.20
2024-03-26T08:45:20.985Z,21.20
2024-03-26T08:53:43.795Z,19.50
2024-03-26T09:02:06.556Z,18.80
2024-03-26T09:10:29.129Z,16.10
2024-03-26T09:18:52.488Z,16.80
2024-03-26T09:27:15.714Z,17.30
2024-03-26T09:35:38.434Z,18.30
2024-03-26T09:44:01.140Z,16.30
2024-03-26T09:52:25.538Z,12.50
2024-03-26T10:00:51.204Z,12.40
2024-03-26T10:09:13.940Z,14.70
2024-03-26T10:17:37.494Z,11.30
2024-03-26T10:26:00.243Z,14.40
2024-03-26T10:34:27.947Z,12.10
2024-03-26T10:42:53.611Z,7.90
2024-03-26T10:51:16.643Z,10.30
2024-03-26T10:59:39.395Z,11.10
2024-03-26T11:08:01.972Z,8.60
2024-03-26T11:16:34.570Z,6.40
2024-03-26T11:25:05.436Z,8.50
2024-03-26T11:33:32.773Z,4.50
2024-03-26T11:41:56.155Z,3.70
2024-03-26T11:50:19.025Z,3.60
2024-03-26T11:58:41.803Z,4.10
2024-03-26T12:07:11.611Z,4.70
2024-03-26T12:15:34.359Z,4.50
2024-03-26T12:23:57.583Z,3.00
2024-03-26T12:32:20.318Z,3.70
2024-03-26T12:40:43.160Z,3.90
2024-03-26T12:49:06.535Z,2.90
2024-03-26T13:05:51.715Z,2.60
2024-03-26T13:22:37.035Z,2.40
2024-03-26T13:31:00.671Z,2.00
2024-03-26T13:39:23.681Z,1.60
2024-03-26T13:47:46.508Z,2.20
2024-03-26T13:56:09.184Z,3.70
2024-03-26T14:04:32.394Z,4.60
2024-03-26T14:12:55.966Z,2.30
2024-03-26T14:21:18.709Z,1.80
2024-03-26T14:29:41.707Z,3.20
2024-03-26T14:38:04.599Z,1.80
2024-03-26T14:46:27.487Z,2.40
2024-03-26T14:54:50.149Z,1.80
2024-03-26T15:03:12.718Z,6.90
2024-03-26T15:11:35.672Z,3.40
2024-03-26T15:19:58.493Z,3.70
2024-03-26T15:28:39.778Z,3.30
2024-03-26T15:37:03.514Z,3.90
2024-03-26T15:45:26.423Z,4.40
2024-03-26T15:53:49.201Z,5.80
2024-03-26T16:02:11.899Z,5.90
2024-03-26T16:10:52.737Z,10.10
2024-03-26T16:19:17.376Z,10.50
2024-03-26T16:27:40.218Z,6.80
2024-03-26T16:36:16.585Z,8.60
2024-03-26T16:44:40.946Z,8.60
2024-03-26T16:53:04.124Z,9.70
2024-03-26T17:01:29.204Z,11.10
2024-03-26T17:09:51.750Z,13.50
2024-03-26T17:18:15.154Z,19.50
2024-03-26T17:26:38.145Z,13.50
2024-03-26T17:35:00.960Z,16.00
2024-03-26T17:43:26.086Z,20.20
2024-03-26T17:51:51.614Z,19.00
2024-03-26T18:00:15.849Z,19.60
2024-03-26T18:08:39.757Z,18.10
2024-03-26T18:17:03.145Z,19.10
2024-03-26T18:25:26.840Z,17.40
2024-03-26T18:33:51.321Z,18.40
2024-03-26T18:42:14.831Z,18.10
2024-03-26T18:50:37.539Z,17.30
2024-03-26T18:59:00.364Z,18.40
2024-03-26T19:07:24.523Z,15.30
2024-03-26T19:15:47.972Z,16.70
2024-03-26T19:24:12.956Z,16.30
2024-03-26T19:32:40.385Z,18.90
2024-03-26T19:41:08.310Z,14.20
2024-03-26T19:49:32.301Z,14.00
2024-03-26T19:57:56.029Z,15.50
2024-03-26T20:06:19.497Z,15.90
2024-03-26T20:14:43.853Z,15.70
2024-03-26T20:23:08.374Z,13.50
2024-03-26T20:31:37.851Z,14.90
2024-03-26T20:40:01.610Z,16.40
2024-03-26T20:48:24.418Z,15.00
2024-03-26T20:56:47.087Z,15.20
2024-03-26T21:05:10.422Z,18.00
2024-03-26T21:13:32.974Z,15.90
2024-03-26T21:21:55.579Z,14.50
2024-03-26T21:30:18.255Z,13.60
2024-03-26T21:38:41.025Z,13.30
2024-03-26T21:47:04.716Z,16.00
2024-03-26T21:55:27.516Z,15.00
2024-03-26T22:03:51.129Z,13.70
2024-03-26T22:12:14.166Z,13.30
2024-03-26T22:20:36.828Z,12.70
2024-03-26T22:29:01.213Z,12.00
2024-03-26T22:37:23.991Z,12.20
2024-03-26T22:46:01.024Z,12.10
2024-03-26T22:54:23.804Z,11.30
2024-03-26T23:02:46.584Z,11.10
2024-03-26T23:11:10.777Z,11.00
2024-03-26T23:19:33.498Z,11.40
2024-03-26T23:27:56.451Z,9.60
2024-03-26T23:36:19.442Z,11.40
2024-03-26T23:44:42.228Z,10.00
2024-03-26T23:53:05.015Z,9.90
